Time;durP1;ratioP1;P1;durP2;ratioP2;P2;SDS_P1;SDS_P2;PMS_P1;PMS_P2;Temp;Humidity;BMP_temperature;BMP_pressure;BME280_temperature;BME280_humidity;BME280_pressure;Samples;Min_cycle;Max_cycle;Signal;HPM_P1;HPM_P2
2024/04/09 00:00:21;;;;;;;66.27;5.10;;;;;;;;;;5506041;25;20589;-73
2024/04/09 00:02:50;;;;;;;66.63;5.63;;;;;;;;;;5525118;25;20461;-73
2024/04/09 00:05:19;;;;;;;69.40;6.40;;;;;;;;;;5524766;25;20517;-72
2024/04/09 00:07:46;;;;;;;72.40;6.23;;;;;;;;;;5488877;26;20793;-72
2024/04/09 00:10:14;;;;;;;65.67;5.67;;;;;;;;;;5506561;25;20517;-72
2024/04/09 00:12:43;;;;;;;69.43;5.70;;;;;;;;;;5522922;26;20476;-72
2024/04/09 00:15:12;;;;;;;66.00;5.00;;;;;;;;;;5511214;26;20584;-72
2024/04/09 00:17:44;;;;;;;73.63;6.03;;;;;;;;;;5511429;26;20586;-73
2024/04/09 00:20:18;;;;;;;68.40;5.40;;;;;;;;;;5508891;26;20476;-73
2024/04/09 00:22:45;;;;;;;69.47;5.77;;;;;;;;;;5522672;25;20520;-72
2024/04/09 00:25:18;;;;;;;72.50;5.90;;;;;;;;;;5511851;25;20473;-73
2024/04/09 00:27:44;;;;;;;65.60;5.60;;;;;;;;;;5510550;25;20476;-73
2024/04/09 00:30:13;;;;;;;70.27;7.07;;;;;;;;;;5525001;25;20512;-73
2024/04/09 00:32:39;;;;;;;64.80;5.73;;;;;;;;;;5526923;26;20535;-73
2024/04/09 00:35:11;;;;;;;66.27;6.17;;;;;;;;;;5527836;25;20815;-73
2024/04/09 00:37:41;;;;;;;70.40;6.40;;;;;;;;;;5524310;25;20472;-73
2024/04/09 00:40:10;;;;;;;69.17;5.40;;;;;;;;;;5510391;25;20473;-73
2024/04/09 00:42:37;;;;;;;68.07;5.37;;;;;;;;;;5525247;25;20784;-73
2024/04/09 00:45:06;;;;;;;74.20;7.90;;;;;;;;;;5528658;25;20535;-73
2024/04/09 00:47:32;;;;;;;72.83;7.80;;;;;;;;;;5508675;26;20466;-73
2024/04/09 00:50:04;;;;;;;71.50;8.00;;;;;;;;;;5499352;26;20476;-72
2024/04/09 00:52:30;;;;;;;68.70;6.60;;;;;;;;;;5503484;26;20525;-73
2024/04/09 00:55:02;;;;;;;67.57;5.27;;;;;;;;;;5527627;25;20464;-73
2024/04/09 00:57:29;;;;;;;69.00;7.50;;;;;;;;;;5509817;26;20512;-73
2024/04/09 00:59:59;;;;;;;74.03;7.30;;;;;;;;;;5491273;26;20480;-72
2024/04/09 01:02:25;;;;;;;83.17;7.17;;;;;;;;;;5519858;26;20465;-72
2024/04/09 01:04:55;;;;;;;69.63;6.33;;;;;;;;;;5508894;25;20531;-72
2024/04/09 01:07:22;;;;;;;70.57;6.37;;;;;;;;;;5510148;26;21012;-72
2024/04/09 01:09:51;;;;;;;73.40;6.50;;;;;;;;;;5493724;26;20477;-72
2024/04/09 01:12:20;;;;;;;63.13;5.50;;;;;;;;;;5523523;26;20476;-72
2024/04/09 01:14:48;;;;;;;66.90;4.93;;;;;;;;;;5524989;25;20477;-72
2024/04/09 01:17:15;;;;;;;67.30;6.63;;;;;;;;;;5512268;26;20583;-72
2024/04/09 01:19:44;;;;;;;77.33;7.20;;;;;;;;;;5489248;26;20567;-72
2024/04/09 01:22:11;;;;;;;68.37;7.47;;;;;;;;;;5523518;26;20909;-72
2024/04/09 01:24:42;;;;;;;75.83;8.13;;;;;;;;;;5526034;25;20593;-72
2024/04/09 01:27:14;;;;;;;67.60;6.47;;;;;;;;;;5518250;26;20570;-71
2024/04/09 01:29:43;;;;;;;71.23;6.80;;;;;;;;;;5505180;25;20557;-72
2024/04/09 01:32:09;;;;;;;68.80;7.17;;;;;;;;;;5516870;25;20468;-72
2024/04/09 01:34:38;;;;;;;64.60;7.40;;;;;;;;;;5515584;26;20874;-72
2024/04/09 01:37:05;;;;;;;66.57;7.17;;;;;;;;;;5514700;26;20550;-72
2024/04/09 01:39:35;;;;;;;74.43;7.17;;;;;;;;;;5489551;26;20651;-72
2024/04/09 01:42:04;;;;;;;70.63;7.30;;;;;;;;;;5519414;25;20469;-72
2024/04/09 01:44:33;;;;;;;72.70;6.83;;;;;;;;;;5515864;26;20571;-72
2024/04/09 01:47:03;;;;;;;75.63;7.37;;;;;;;;;;5500824;26;20883;-72
2024/04/09 01:49:32;;;;;;;70.40;6.13;;;;;;;;;;5494466;25;20533;-72
2024/04/09 01:51:58;;;;;;;79.47;7.27;;;;;;;;;;5525164;25;20596;-72
2024/04/09 01:54:27;;;;;;;73.90;7.03;;;;;;;;;;5518041;26;20878;-72
2024/04/09 01:56:53;;;;;;;70.73;6.70;;;;;;;;;;5522329;26;20586;-72
2024/04/09 01:59:25;;;;;;;71.43;7.60;;;;;;;;;;5510620;26;20472;-72
2024/04/09 02:01:52;;;;;;;73.50;7.17;;;;;;;;;;5521936;25;20536;-72
2024/04/09 02:04:21;;;;;;;66.33;6.93;;;;;;;;;;5519639;26;20536;-73
2024/04/09 02:06:47;;;;;;;72.40;6.97;;;;;;;;;;5511754;26;21073;-72
2024/04/09 02:09:18;;;;;;;65.33;6.00;;;;;;;;;;5510614;26;20469;-73
2024/04/09 02:11:44;;;;;;;75.47;7.43;;;;;;;;;;5524692;25;20476;-73
2024/04/09 02:14:12;;;;;;;68.60;7.17;;;;;;;;;;5512912;25;20587;-73
2024/04/09 02:16:41;;;;;;;70.60;8.70;;;;;;;;;;5498467;26;20561;-73
2024/04/09 02:19:10;;;;;;;76.63;8.30;;;;;;;;;;5514390;25;20478;-72
2024/04/09 02:21:37;;;;;;;73.47;6.50;;;;;;;;;;5498525;25;20464;-73
2024/04/09 02:24:06;;;;;;;69.10;6.37;;;;;;;;;;5514992;26;20548;-73
2024/04/09 02:26:33;;;;;;;71.10;7.70;;;;;;;;;;5503679;26;20513;-73
2024/04/09 02:29:02;;;;;;;71.43;5.80;;;;;;;;;;5510962;26;20980;-72
2024/04/09 02:31:28;;;;;;;72.53;6.47;;;;;;;;;;5529049;25;20483;-72
2024/04/09 02:34:00;;;;;;;66.07;5.30;;;;;;;;;;5517108;26;20469;-72
2024/04/09 02:36:26;;;;;;;73.30;7.00;;;;;;;;;;5525229;25;21012;-72
2024/04/09 02:38:57;;;;;;;69.87;5.70;;;;;;;;;;5509666;26;20480;-72
2024/04/09 02:41:23;;;;;;;71.63;5.73;;;;;;;;;;5520026;25;20525;-72
2024/04/09 02:43:52;;;;;;;69.10;5.30;;;;;;;;;;5517597;26;20595;-72
2024/04/09 02:46:18;;;;;;;67.63;5.33;;;;;;;;;;5499357;26;21041;-72
2024/04/09 02:48:47;;;;;;;69.53;5.90;;;;;;;;;;5519167;25;20470;-72
2024/04/09 02:51:15;;;;;;;74.30;5.47;;;;;;;;;;5515606;25;20461;-72
2024/04/09 02:53:44;;;;;;;71.33;5.10;;;;;;;;;;5516107;25;20492;-72
2024/04/09 02:56:11;;;;;;;72.27;5.90;;;;;;;;;;5525002;25;20520;-72
2024/04/09 02:58:40;;;;;;;78.70;6.63;;;;;;;;;;5520778;25;21075;-72
2024/04/09 03:01:07;;;;;;;63.73;5.00;;;;;;;;;;5492753;26;20493;-72
2024/04/09 03:03:36;;;;;;;65.00;5.20;;;;;;;;;;5521486;25;20529;-72
2024/04/09 03:06:05;;;;;;;63.10;5.03;;;;;;;;;;5512256;26;20972;-72
2024/04/09 03:08:37;;;;;;;71.00;6.57;;;;;;;;;;5518341;25;21068;-72
2024/04/09 03:11:10;;;;;;;72.30;5.37;;;;;;;;;;5501123;26;20996;-72
2024/04/09 03:13:38;;;;;;;68.60;5.70;;;;;;;;;;5524764;25;20460;-72
2024/04/09 03:16:10;;;;;;;65.40;4.80;;;;;;;;;;5522094;26;20855;-72
2024/04/09 03:18:39;;;;;;;64.07;5.23;;;;;;;;;;5518609;25;20469;-72
2024/04/09 03:21:05;;;;;;;64.10;4.90;;;;;;;;;;5521421;25;20513;-72
2024/04/09 03:23:37;;;;;;;76.80;6.03;;;;;;;;;;5506233;25;20538;-72
2024/04/09 03:26:05;;;;;;;66.77;5.83;;;;;;;;;;5490669;25;20529;-72
2024/04/09 03:28:34;;;;;;;71.53;7.33;;;;;;;;;;5517889;25;20496;-72
2024/04/09 03:31:00;;;;;;;71.93;5.97;;;;;;;;;;5512676;26;20952;-72
2024/04/09 03:33:29;;;;;;;67.90;6.37;;;;;;;;;;5523855;25;20462;-72
2024/04/09 03:35:56;;;;;;;73.40;7.30;;;;;;;;;;5523472;26;20576;-71
2024/04/09 03:38:25;;;;;;;66.93;5.53;;;;;;;;;;5524320;25;20521;-72
2024/04/09 03:41:00;;;;;;;69.33;4.97;;;;;;;;;;5498506;25;20464;-72
2024/04/09 03:43:29;;;;;;;76.30;6.10;;;;;;;;;;5520661;25;21089;-72
2024/04/09 03:46:02;;;;;;;70.23;5.13;;;;;;;;;;5500756;26;20462;-72
2024/04/09 03:48:30;;;;;;;72.60;5.43;;;;;;;;;;5504428;25;20569;-72
2024/04/09 03:50:58;;;;;;;67.73;6.60;;;;;;;;;;5522201;25;20577;-72
2024/04/09 03:53:26;;;;;;;71.87;6.20;;;;;;;;;;5523364;26;20473;-72
2024/04/09 03:55:53;;;;;;;72.17;7.30;;;;;;;;;;5505269;25;20559;-72
2024/04/09 03:58:25;;;;;;;67.03;5.40;;;;;;;;;;5517360;25;21004;-71
2024/04/09 04:00:55;;;;;;;72.07;6.40;;;;;;;;;;5507956;26;20516;-71
2024/04/09 04:03:23;;;;;;;62.67;5.37;;;;;;;;;;5523444;25;20452;-71
2024/04/09 04:05:50;;;;;;;64.60;5.37;;;;;;;;;;5525289;26;20907;-71
2024/04/09 04:08:19;;;;;;;71.50;4.90;;;;;;;;;;5527557;25;20492;-71
2024/04/09 04:10:52;;;;;;;66.77;6.10;;;;;;;;;;5520887;25;20484;-72
2024/04/09 04:13:20;;;;;;;73.40;6.10;;;;;;;;;;5520398;25;20856;-71
2024/04/09 04:15:56;;;;;;;78.67;6.00;;;;;;;;;;5506373;26;21149;-71
2024/04/09 04:18:24;;;;;;;67.17;5.47;;;;;;;;;;5490327;26;20790;-71
2024/04/09 04:20:51;;;;;;;64.57;5.80;;;;;;;;;;5520061;25;21098;-72
2024/04/09 04:23:20;;;;;;;67.47;5.57;;;;;;;;;;5526529;25;20472;-72
2024/04/09 04:25:53;;;;;;;67.00;4.97;;;;;;;;;;5512302;26;20528;-71
2024/04/09 04:28:21;;;;;;;63.07;6.00;;;;;;;;;;5509056;25;20465;-72
2024/04/09 04:30:48;;;;;;;64.33;5.00;;;;;;;;;;5511445;26;21011;-73
2024/04/09 04:33:19;;;;;;;66.80;5.97;;;;;;;;;;5536946;25;20448;-72
2024/04/09 04:35:45;;;;;;;60.67;4.60;;;;;;;;;;5517847;25;20868;-73
2024/04/09 04:38:14;;;;;;;67.63;6.83;;;;;;;;;;5500688;26;20469;-74
2024/04/09 04:40:40;;;;;;;67.43;5.87;;;;;;;;;;5503362;26;20477;-73
2024/04/09 04:43:09;;;;;;;65.53;5.10;;;;;;;;;;5526290;25;20554;-74
2024/04/09 04:45:35;;;;;;;68.30;6.20;;;;;;;;;;5526664;26;21000;-71
2024/04/09 04:48:04;;;;;;;66.33;4.80;;;;;;;;;;5519868;25;21117;-74
2024/04/09 04:50:32;;;;;;;65.33;5.30;;;;;;;;;;5525449;26;20509;-73
2024/04/09 04:53:01;;;;;;;68.37;6.40;;;;;;;;;;5512748;25;20480;-73
2024/04/09 04:55:27;;;;;;;71.13;5.50;;;;;;;;;;5511429;26;20526;-73
2024/04/09 04:57:56;;;;;;;63.20;5.73;;;;;;;;;;5520127;26;20533;-73
2024/04/09 05:00:23;;;;;;;66.97;5.23;;;;;;;;;;5527115;26;20611;-73
2024/04/09 05:02:52;;;;;;;75.07;5.43;;;;;;;;;;5510893;26;20744;-74
2024/04/09 05:05:18;;;;;;;71.13;4.70;;;;;;;;;;5527027;25;20772;-71
2024/04/09 05:07:51;;;;;;;66.37;4.80;;;;;;;;;;5507100;26;20482;-71
2024/04/09 05:10:17;;;;;;;64.43;5.70;;;;;;;;;;5490071;26;20482;-71
2024/04/09 05:12:48;;;;;;;66.10;5.80;;;;;;;;;;5488736;26;20525;-71
2024/04/09 05:15:14;;;;;;;64.70;5.47;;;;;;;;;;5490230;26;20473;-72
2024/04/09 05:17:43;;;;;;;70.10;5.40;;;;;;;;;;5488368;26;20542;-72
2024/04/09 05:20:09;;;;;;;69.60;4.47;;;;;;;;;;5508791;26;20468;-73
2024/04/09 05:22:38;;;;;;;66.17;4.70;;;;;;;;;;5510045;26;20594;-71
2024/04/09 05:25:07;;;;;;;63.40;5.33;;;;;;;;;;5525947;26;20520;-71
2024/04/09 05:27:36;;;;;;;69.87;5.03;;;;;;;;;;5525990;26;20465;-71
2024/04/09 05:30:02;;;;;;;64.70;5.23;;;;;;;;;;5526178;25;20624;-71
2024/04/09 05:32:31;;;;;;;64.20;4.30;;;;;;;;;;5525732;26;20476;-73
2024/04/09 05:34:57;;;;;;;64.87;4.53;;;;;;;;;;5511931;26;20521;-71
2024/04/09 05:37:26;;;;;;;61.27;4.27;;;;;;;;;;5526284;25;20469;-71
2024/04/09 05:39:52;;;;;;;67.27;5.20;;;;;;;;;;5505214;25;20514;-71
2024/04/09 05:42:24;;;;;;;59.17;3.07;;;;;;;;;;5488978;26;20473;-72
2024/04/09 05:44:50;;;;;;;61.60;3.33;;;;;;;;;;5489333;26;20522;-72
2024/04/09 05:47:19;;;;;;;66.93;3.87;;;;;;;;;;5506746;25;20529;-72
2024/04/09 05:49:45;;;;;;;60.10;3.10;;;;;;;;;;5507444;25;20822;-71
2024/04/09 05:52:14;;;;;;;66.10;4.30;;;;;;;;;;5488982;26;20470;-71
2024/04/09 05:54:40;;;;;;;60.40;4.20;;;;;;;;;;5489087;26;20580;-71
2024/04/09 05:57:09;;;;;;;67.90;4.10;;;;;;;;;;5489671;26;20458;-71
2024/04/09 05:59:38;;;;;;;64.40;3.87;;;;;;;;;;5489704;26;20486;-71
2024/04/09 06:02:07;;;;;;;63.63;3.80;;;;;;;;;;5489424;26;20597;-71
2024/04/09 06:04:33;;;;;;;64.77;3.60;;;;;;;;;;5489136;26;20510;-71
2024/04/09 06:07:03;;;;;;;65.13;3.60;;;;;;;;;;5489734;26;20462;-71
2024/04/09 06:09:29;;;;;;;63.70;4.67;;;;;;;;;;5489944;26;20494;-72
2024/04/09 06:11:58;;;;;;;67.70;3.97;;;;;;;;;;5488961;26;20522;-71
2024/04/09 06:14:24;;;;;;;59.13;3.00;;;;;;;;;;5489088;26;21211;-72
2024/04/09 06:16:57;;;;;;;63.03;4.80;;;;;;;;;;5489950;26;20469;-71
2024/04/09 06:19:23;;;;;;;64.17;3.90;;;;;;;;;;5489935;26;20482;-71
2024/04/09 06:21:52;;;;;;;61.33;3.00;;;;;;;;;;5489276;26;20471;-71
2024/04/09 06:24:18;;;;;;;67.23;3.50;;;;;;;;;;5488940;26;20926;-72
2024/04/09 06:26:46;;;;;;;62.27;3.40;;;;;;;;;;5489666;26;20874;-71
2024/04/09 06:29:12;;;;;;;61.50;3.40;;;;;;;;;;5489607;26;20478;-72
2024/04/09 06:31:41;;;;;;;63.53;3.57;;;;;;;;;;5488606;26;20526;-72
2024/04/09 06:34:10;;;;;;;57.47;2.90;;;;;;;;;;5489433;26;20477;-72
2024/04/09 06:36:39;;;;;;;63.27;3.53;;;;;;;;;;5489772;26;20467;-72
2024/04/09 06:39:05;;;;;;;61.27;3.30;;;;;;;;;;5502483;25;20594;-72
2024/04/09 06:41:34;;;;;;;60.80;3.40;;;;;;;;;;5517451;26;20516;-72
2024/04/09 06:44:00;;;;;;;57.97;4.00;;;;;;;;;;5523048;26;20873;-72
2024/04/09 06:46:29;;;;;;;61.90;3.17;;;;;;;;;;5519277;26;20717;-72
2024/04/09 06:48:55;;;;;;;59.97;2.97;;;;;;;;;;5510444;26;20594;-72
2024/04/09 06:51:26;;;;;;;59.70;3.20;;;;;;;;;;5525732;25;20480;-72
2024/04/09 06:53:53;;;;;;;63.20;3.07;;;;;;;;;;5514325;26;20781;-71
2024/04/09 06:56:22;;;;;;;60.00;2.70;;;;;;;;;;5505149;26;20530;-72
2024/04/09 06:58:48;;;;;;;58.10;3.20;;;;;;;;;;5521772;25;20473;-72
2024/04/09 07:01:17;;;;;;;61.03;2.90;;;;;;;;;;5524790;26;20557;-72
2024/04/09 07:03:43;;;;;;;60.20;2.33;;;;;;;;;;5519689;26;20896;-72
2024/04/09 07:06:12;;;;;;;59.53;2.77;;;;;;;;;;5511211;26;21072;-72
2024/04/09 07:08:40;;;;;;;60.20;2.87;;;;;;;;;;5525080;25;20519;-73
2024/04/09 07:11:09;;;;;;;59.47;3.17;;;;;;;;;;5517179;26;20591;-73
2024/04/09 07:13:35;;;;;;;61.00;3.13;;;;;;;;;;5488169;26;20458;-72
2024/04/09 07:16:05;;;;;;;58.80;2.93;;;;;;;;;;5491654;26;20526;-73
2024/04/09 07:18:31;;;;;;;64.07;3.60;;;;;;;;;;5511179;26;20561;-73
2024/04/09 07:21:00;;;;;;;64.23;3.30;;;;;;;;;;5522666;25;20696;-72
2024/04/09 07:23:26;;;;;;;61.10;3.93;;;;;;;;;;5523831;25;20881;-72
2024/04/09 07:25:58;;;;;;;62.90;4.10;;;;;;;;;;5489405;26;21094;-72
2024/04/09 07:28:24;;;;;;;58.27;3.20;;;;;;;;;;5488388;26;20599;-72
2024/04/09 07:30:53;;;;;;;58.80;3.20;;;;;;;;;;5488174;26;20534;-72
2024/04/09 07:33:19;;;;;;;64.30;3.10;;;;;;;;;;5524787;26;20915;-72
2024/04/09 07:35:48;;;;;;;66.47;3.23;;;;;;;;;;5492160;26;20791;-71
2024/04/09 07:38:14;;;;;;;59.30;3.53;;;;;;;;;;5490713;26;20758;-72
2024/04/09 07:40:43;;;;;;;60.30;3.43;;;;;;;;;;5522300;26;20900;-72
2024/04/09 07:43:12;;;;;;;57.57;2.90;;;;;;;;;;5488241;26;20587;-73
2024/04/09 07:45:40;;;;;;;58.17;2.73;;;;;;;;;;5487658;26;21013;-73
2024/04/09 07:48:07;;;;;;;58.00;3.40;;;;;;;;;;5488180;26;20474;-73
2024/04/09 07:50:37;;;;;;;59.07;2.77;;;;;;;;;;5487229;26;20454;-72
2024/04/09 07:53:04;;;;;;;58.57;2.93;;;;;;;;;;5505308;26;20466;-73
2024/04/09 07:55:33;;;;;;;59.80;2.90;;;;;;;;;;5524441;25;20477;-72
2024/04/09 07:57:59;;;;;;;59.27;2.80;;;;;;;;;;5488488;26;20482;-73
2024/04/09 08:00:30;;;;;;;57.43;2.63;;;;;;;;;;5487633;26;20463;-72
2024/04/09 08:02:56;;;;;;;56.67;2.77;;;;;;;;;;5486853;26;21061;-73
2024/04/09 08:05:25;;;;;;;62.70;2.50;;;;;;;;;;5487285;26;20478;-72
2024/04/09 08:07:52;;;;;;;64.93;2.20;;;;;;;;;;5487184;26;20521;-73
2024/04/09 08:10:21;;;;;;;61.20;2.30;;;;;;;;;;5486446;26;20496;-73
2024/04/09 08:12:49;;;;;;;57.70;2.07;;;;;;;;;;5487324;26;20581;-73
2024/04/09 08:15:18;;;;;;;56.37;2.07;;;;;;;;;;5486532;26;20822;-72
2024/04/09 08:17:48;;;;;;;58.37;2.07;;;;;;;;;;5516006;26;20476;-72
2024/04/09 08:20:17;;;;;;;62.50;2.27;;;;;;;;;;5511837;26;20585;-72
2024/04/09 08:22:43;;;;;;;56.20;2.00;;;;;;;;;;5521480;26;20484;-73
2024/04/09 08:25:12;;;;;;;56.40;2.10;;;;;;;;;;5517057;26;21069;-73
2024/04/09 08:27:40;;;;;;;56.10;2.00;;;;;;;;;;5524620;26;20599;-73
2024/04/09 08:30:09;;;;;;;59.03;2.00;;;;;;;;;;5523639;25;20469;-72
2024/04/09 08:32:35;;;;;;;56.77;2.23;;;;;;;;;;5523454;26;20468;-73
2024/04/09 08:35:07;;;;;;;58.70;2.40;;;;;;;;;;5523328;26;20472;-73
2024/04/09 08:37:33;;;;;;;55.93;1.93;;;;;;;;;;5522600;26;20577;-72
2024/04/09 08:40:03;;;;;;;55.87;2.10;;;;;;;;;;5517522;25;20485;-73
2024/04/09 08:42:29;;;;;;;56.17;2.10;;;;;;;;;;5503253;26;20522;-73
2024/04/09 08:44:59;;;;;;;59.50;2.20;;;;;;;;;;5487918;26;20538;-72
2024/04/09 08:47:25;;;;;;;56.97;2.00;;;;;;;;;;5488559;26;20473;-72
2024/04/09 08:49:55;;;;;;;56.20;2.20;;;;;;;;;;5488449;26;20526;-73
2024/04/09 08:52:25;;;;;;;55.93;1.90;;;;;;;;;;5489595;26;20458;-73
2024/04/09 08:54:54;;;;;;;56.70;2.00;;;;;;;;;;5491842;26;21061;-73
2024/04/09 08:57:21;;;;;;;55.73;1.80;;;;;;;;;;5492626;26;20465;-74
2024/04/09 08:59:50;;;;;;;56.07;1.97;;;;;;;;;;5492698;26;20529;-73
2024/04/09 09:02:16;;;;;;;56.67;2.07;;;;;;;;;;5492170;26;20577;-72
2024/04/09 09:04:46;;;;;;;56.07;1.90;;;;;;;;;;5492045;26;20521;-73
2024/04/09 09:07:15;;;;;;;56.60;2.20;;;;;;;;;;5491742;26;20521;-73
2024/04/09 09:09:47;;;;;;;56.30;2.10;;;;;;;;;;5490849;26;20837;-72
2024/04/09 09:12:14;;;;;;;55.67;2.03;;;;;;;;;;5491263;26;20477;-73
2024/04/09 09:14:51;;;;;;;57.80;2.20;;;;;;;;;;5490795;26;20473;-74
2024/04/09 09:17:17;;;;;;;56.87;2.20;;;;;;;;;;5491772;26;20635;-72
2024/04/09 09:19:46;;;;;;;56.80;2.13;;;;;;;;;;5491083;26;20599;-72
2024/04/09 09:22:12;;;;;;;56.37;2.27;;;;;;;;;;5490821;26;20466;-73
2024/04/09 09:24:42;;;;;;;56.77;2.30;;;;;;;;;;5494656;26;20457;-73
2024/04/09 09:27:10;;;;;;;59.10;2.50;;;;;;;;;;5511142;26;20468;-72
2024/04/09 09:29:39;;;;;;;59.57;2.33;;;;;;;;;;5508457;25;20513;-73
2024/04/09 09:32:11;;;;;;;56.30;2.37;;;;;;;;;;5527101;26;20472;-73
2024/04/09 09:34:40;;;;;;;55.77;2.30;;;;;;;;;;5508484;26;20461;-73
2024/04/09 09:37:07;;;;;;;58.97;2.60;;;;;;;;;;5512103;26;20882;-72
2024/04/09 09:39:36;;;;;;;56.37;2.23;;;;;;;;;;5526554;25;20515;-71
2024/04/09 09:42:04;;;;;;;56.03;2.23;;;;;;;;;;5511580;26;20469;-72
2024/04/09 09:44:38;;;;;;;58.30;2.17;;;;;;;;;;5526711;26;20479;-72
2024/04/09 09:47:04;;;;;;;56.67;2.10;;;;;;;;;;5527177;26;20516;-72
2024/04/09 09:49:33;;;;;;;57.57;2.20;;;;;;;;;;5527156;25;20480;-73
2024/04/09 09:52:00;;;;;;;58.57;2.20;;;;;;;;;;5526851;26;20469;-73
2024/04/09 09:54:29;;;;;;;55.97;2.23;;;;;;;;;;5526406;26;20528;-73
2024/04/09 09:56:58;;;;;;;56.60;2.00;;;;;;;;;;5527082;26;20905;-73
2024/04/09 09:59:27;;;;;;;57.00;2.67;;;;;;;;;;5527149;25;20481;-72
2024/04/09 10:01:57;;;;;;;60.57;4.20;;;;;;;;;;5526272;26;20551;-73
2024/04/09 10:04:28;;;;;;;60.00;2.70;;;;;;;;;;5526031;26;20602;-73
2024/04/09 10:06:55;;;;;;;56.07;2.27;;;;;;;;;;5523287;26;20528;-73
2024/04/09 10:09:39;;;;;;;56.40;2.00;;;;;;;;;;5527680;25;20480;-73
2024/04/09 10:12:07;;;;;;;56.03;2.23;;;;;;;;;;5526858;26;20472;-73
2024/04/09 10:14:41;;;;;;;56.87;2.20;;;;;;;;;;5526355;26;20473;-72
2024/04/09 10:17:13;;;;;;;55.97;1.87;;;;;;;;;;5528404;26;20459;-71
2024/04/09 10:19:44;;;;;;;55.87;2.17;;;;;;;;;;5528141;25;20660;-72
2024/04/09 10:22:10;;;;;;;55.87;2.30;;;;;;;;;;5506705;25;20465;-72
2024/04/09 10:24:39;;;;;;;56.10;2.10;;;;;;;;;;5527285;26;20533;-72
2024/04/09 10:27:05;;;;;;;56.83;2.17;;;;;;;;;;5526778;25;20548;-71
2024/04/09 10:29:34;;;;;;;56.10;2.00;;;;;;;;;;5526923;25;20460;-72
2024/04/09 10:32:00;;;;;;;57.07;2.20;;;;;;;;;;5526062;25;20599;-72
2024/04/09 10:34:31;;;;;;;56.00;2.10;;;;;;;;;;5527865;26;20540;-72
2024/04/09 10:36:58;;;;;;;55.97;2.30;;;;;;;;;;5526562;26;21000;-71
2024/04/09 10:39:28;;;;;;;55.70;1.90;;;;;;;;;;5526284;26;20540;-71
2024/04/09 10:41:56;;;;;;;57.80;2.60;;;;;;;;;;5510084;26;20470;-71
2024/04/09 10:44:25;;;;;;;55.90;1.87;;;;;;;;;;5526005;26;20472;-71
2024/04/09 10:46:52;;;;;;;56.27;2.00;;;;;;;;;;5526196;26;20468;-71
2024/04/09 10:49:21;;;;;;;56.17;2.33;;;;;;;;;;5525633;25;20488;-71
2024/04/09 10:51:50;;;;;;;56.20;1.83;;;;;;;;;;5525380;26;20476;-71
2024/04/09 10:54:19;;;;;;;55.83;2.10;;;;;;;;;;5525748;26;20473;-71
2024/04/09 10:56:45;;;;;;;56.60;2.10;;;;;;;;;;5526084;26;20460;-71
2024/04/09 10:59:17;;;;;;;59.40;3.73;;;;;;;;;;5525235;25;20562;-72
2024/04/09 11:01:43;;;;;;;55.90;2.10;;;;;;;;;;5525205;26;20472;-72
2024/04/09 11:04:14;;;;;;;55.17;1.97;;;;;;;;;;5524647;26;20461;-70
2024/04/09 11:06:41;;;;;;;56.70;2.17;;;;;;;;;;5524982;26;20516;-72
2024/04/09 11:09:13;;;;;;;56.07;2.03;;;;;;;;;;5525377;25;20480;-72
2024/04/09 11:11:40;;;;;;;56.47;2.00;;;;;;;;;;5525215;26;20464;-71
2024/04/09 11:14:10;;;;;;;56.73;1.90;;;;;;;;;;5520890;25;20590;-72
2024/04/09 11:16:45;;;;;;;56.57;2.20;;;;;;;;;;5486779;26;20465;-72
2024/04/09 11:19:14;;;;;;;57.77;2.40;;;;;;;;;;5493497;26;20469;-71
2024/04/09 11:21:40;;;;;;;57.00;1.97;;;;;;;;;;5522611;26;20841;-72
2024/04/09 11:24:09;;;;;;;56.13;2.23;;;;;;;;;;5523628;26;20559;-72
2024/04/09 11:26:38;;;;;;;56.47;2.27;;;;;;;;;;5519055;25;20476;-71
2024/04/09 11:29:06;;;;;;;55.70;1.93;;;;;;;;;;5525918;25;20524;-71
2024/04/09 11:31:33;;;;;;;56.67;2.17;;;;;;;;;;5511823;26;20481;-71
2024/04/09 11:34:01;;;;;;;57.93;2.13;;;;;;;;;;5520157;26;20535;-72
2024/04/09 11:36:28;;;;;;;55.90;2.10;;;;;;;;;;5516637;26;21030;-72
2024/04/09 11:38:57;;;;;;;55.47;2.10;;;;;;;;;;5511528;25;20803;-71
2024/04/09 11:41:23;;;;;;;56.00;2.10;;;;;;;;;;5524607;25;20473;-72
2024/04/09 11:44:00;;;;;;;55.70;2.20;;;;;;;;;;5524597;26;20817;-72
2024/04/09 11:46:26;;;;;;;56.00;2.40;;;;;;;;;;5515719;26;20533;-71
2024/04/09 11:48:56;;;;;;;56.20;2.10;;;;;;;;;;5490340;26;21113;-72
2024/04/09 11:51:22;;;;;;;55.60;1.90;;;;;;;;;;5524253;26;20613;-71
2024/04/09 11:53:51;;;;;;;56.20;2.23;;;;;;;;;;5524181;26;20529;-71
2024/04/09 11:56:17;;;;;;;57.33;2.07;;;;;;;;;;5517339;26;20469;-72
2024/04/09 11:58:48;;;;;;;55.90;2.20;;;;;;;;;;5512175;25;21040;-71
2024/04/09 12:01:17;;;;;;;56.17;2.03;;;;;;;;;;5488162;26;20529;-72
2024/04/09 12:03:45;;;;;;;55.90;1.90;;;;;;;;;;5488153;26;21005;-72
2024/04/09 12:06:12;;;;;;;56.27;2.20;;;;;;;;;;5487600;26;20478;-71
2024/04/09 12:08:41;;;;;;;57.57;2.30;;;;;;;;;;5487385;26;20474;-71
2024/04/09 12:11:08;;;;;;;57.80;2.10;;;;;;;;;;5486859;26;20782;-72
2024/04/09 12:13:37;;;;;;;57.93;2.20;;;;;;;;;;5488754;26;20463;-72
2024/04/09 12:16:03;;;;;;;55.77;2.13;;;;;;;;;;5487912;26;20458;-72
2024/04/09 12:18:34;;;;;;;56.30;1.93;;;;;;;;;;5487400;26;20857;-72
2024/04/09 12:21:00;;;;;;;55.90;2.20;;;;;;;;;;5486769;26;20572;-72
2024/04/09 12:23:29;;;;;;;56.37;2.30;;;;;;;;;;5487055;26;20470;-72
2024/04/09 12:25:55;;;;;;;60.80;2.17;;;;;;;;;;5488753;26;20518;-71
2024/04/09 12:28:24;;;;;;;57.47;2.00;;;;;;;;;;5494841;26;20572;-71
2024/04/09 12:30:51;;;;;;;56.70;2.07;;;;;;;;;;5492026;26;20466;-72
2024/04/09 12:33:20;;;;;;;56.07;2.20;;;;;;;;;;5491581;26;20470;-71
2024/04/09 12:35:49;;;;;;;55.37;1.90;;;;;;;;;;5491583;26;20470;-73
2024/04/09 12:38:17;;;;;;;56.70;2.10;;;;;;;;;;5490932;26;20482;-71
2024/04/09 12:40:43;;;;;;;57.90;2.30;;;;;;;;;;5490336;26;20595;-71
2024/04/09 12:43:12;;;;;;;58.27;2.10;;;;;;;;;;5490575;26;20470;-71
2024/04/09 12:45:38;;;;;;;56.40;2.20;;;;;;;;;;5490475;26;20461;-72
2024/04/09 12:48:08;;;;;;;56.30;2.10;;;;;;;;;;5489999;26;20470;-72
2024/04/09 12:50:34;;;;;;;56.00;2.00;;;;;;;;;;5490971;26;20906;-72
2024/04/09 12:53:06;;;;;;;55.90;2.00;;;;;;;;;;5489957;26;20486;-72
2024/04/09 12:55:32;;;;;;;56.00;1.80;;;;;;;;;;5490345;26;20637;-72
2024/04/09 12:58:01;;;;;;;56.20;2.03;;;;;;;;;;5490165;26;20473;-72
2024/04/09 13:00:29;;;;;;;56.40;2.20;;;;;;;;;;5490190;26;20474;-72
2024/04/09 13:02:57;;;;;;;57.40;2.00;;;;;;;;;;5489283;26;21145;-72
2024/04/09 13:05:23;;;;;;;55.63;1.80;;;;;;;;;;5489990;26;20466;-71
2024/04/09 13:07:53;;;;;;;55.63;2.10;;;;;;;;;;5490291;26;20525;-72
2024/04/09 13:10:21;;;;;;;55.97;1.93;;;;;;;;;;5490308;26;20458;-72
2024/04/09 13:12:50;;;;;;;55.87;2.10;;;;;;;;;;5489471;26;20466;-71
2024/04/09 13:15:16;;;;;;;55.07;1.80;;;;;;;;;;5490899;26;20575;-73
2024/04/09 13:17:46;;;;;;;56.50;1.97;;;;;;;;;;5491003;26;20513;-72
2024/04/09 13:20:12;;;;;;;55.57;1.80;;;;;;;;;;5490891;26;20520;-73
2024/04/09 13:22:41;;;;;;;55.90;2.00;;;;;;;;;;5489477;26;20466;-72
2024/04/09 13:25:08;;;;;;;55.73;1.90;;;;;;;;;;5492086;26;20658;-72
2024/04/09 13:27:39;;;;;;;59.60;1.90;;;;;;;;;;5490605;26;20533;-72
2024/04/09 13:30:06;;;;;;;55.50;1.90;;;;;;;;;;5490371;26;20584;-72
2024/04/09 13:32:35;;;;;;;56.67;1.90;;;;;;;;;;5489459;26;20855;-73
2024/04/09 13:35:02;;;;;;;57.90;2.20;;;;;;;;;;5490514;26;20926;-73
2024/04/09 13:37:32;;;;;;;55.57;1.90;;;;;;;;;;5492142;26;20596;-72
2024/04/09 13:39:58;;;;;;;57.13;1.90;;;;;;;;;;5490601;26;20482;-72
2024/04/09 13:42:27;;;;;;;56.17;1.93;;;;;;;;;;5491011;26;20582;-72
2024/04/09 13:44:56;;;;;;;56.07;1.90;;;;;;;;;;5492548;26;20616;-73
2024/04/09 13:47:25;;;;;;;56.10;2.00;;;;;;;;;;5493131;26;20470;-72
2024/04/09 13:49:51;;;;;;;55.80;1.90;;;;;;;;;;5493902;26;20880;-72
2024/04/09 13:52:20;;;;;;;56.23;1.90;;;;;;;;;;5490753;26;21001;-72
2024/04/09 13:54:47;;;;;;;56.00;2.20;;;;;;;;;;5491289;26;20486;-72
2024/04/09 13:57:16;;;;;;;55.63;1.70;;;;;;;;;;5491162;26;20478;-73
2024/04/09 13:59:42;;;;;;;56.07;2.00;;;;;;;;;;5491325;26;20921;-72
2024/04/09 14:02:17;;;;;;;56.50;2.10;;;;;;;;;;5490436;26;21057;-72
2024/04/09 14:04:44;;;;;;;55.70;1.80;;;;;;;;;;5493037;26;20466;-72
2024/04/09 14:07:13;;;;;;;55.80;1.90;;;;;;;;;;5493095;26;20530;-72
2024/04/09 14:09:39;;;;;;;56.40;2.30;;;;;;;;;;5492336;26;20534;-72
2024/04/09 14:12:08;;;;;;;55.77;1.90;;;;;;;;;;5491666;26;20466;-72
2024/04/09 14:14:34;;;;;;;56.83;2.13;;;;;;;;;;5492541;26;20915;-72
2024/04/09 14:17:05;;;;;;;55.67;1.90;;;;;;;;;;5491574;26;20588;-72
2024/04/09 14:19:33;;;;;;;56.97;1.97;;;;;;;;;;5492376;26;20526;-71
2024/04/09 14:22:02;;;;;;;56.10;1.77;;;;;;;;;;5491570;26;21013;-72
2024/04/09 14:24:29;;;;;;;55.77;1.90;;;;;;;;;;5492082;26;20462;-72
2024/04/09 14:26:57;;;;;;;55.60;2.00;;;;;;;;;;5492754;26;21032;-71
2024/04/09 14:29:24;;;;;;;55.60;2.00;;;;;;;;;;5512332;26;20472;-72
2024/04/09 14:31:52;;;;;;;57.80;2.73;;;;;;;;;;5528001;26;20472;-72
2024/04/09 14:34:19;;;;;;;56.30;1.83;;;;;;;;;;5529423;26;21123;-72
2024/04/09 14:36:50;;;;;;;56.37;2.00;;;;;;;;;;5528887;26;20469;-72